sensor_id;sensor_type;location;lat;lon;timestamp;P1;durP1;ratioP1;P2;durP2;ratioP2
62024;SDS011;47978;49.118;12.146;2023-05-07T00:03:34;11.57;;;8.07;;
62024;SDS011;47978;49.118;12.146;2023-05-07T00:11:37;11.70;;;7.82;;
62024;SDS011;47978;49.118;12.146;2023-05-07T00:15:39;10.98;;;8.57;;
62024;SDS011;47978;49.118;12.146;2023-05-07T00:19:42;13.65;;;8.18;;
62024;SDS011;47978;49.118;12.146;2023-05-07T00:23:43;13.25;;;8.15;;
62024;SDS011;47978;49.118;12.146;2023-05-07T00:27:45;12.43;;;8.02;;
62024;SDS011;47978;49.118;12.146;2023-05-07T00:31:46;13.10;;;8.25;;
62024;SDS011;47978;49.118;12.146;2023-05-07T00:35:52;11.57;;;7.57;;
62024;SDS011;47978;49.118;12.146;2023-05-07T00:43:55;12.15;;;8.35;;
62024;SDS011;47978;49.118;12.146;2023-05-07T00:47:57;10.13;;;7.45;;
62024;SDS011;47978;49.118;12.146;2023-05-07T00:52:01;21.77;;;9.55;;
62024;SDS011;47978;49.118;12.146;2023-05-07T01:00:06;25.17;;;11.93;;
62024;SDS011;47978;49.118;12.146;2023-05-07T01:04:08;18.10;;;10.65;;
62024;SDS011;47978;49.118;12.146;2023-05-07T01:08:12;19.30;;;11.73;;
62024;SDS011;47978;49.118;12.146;2023-05-07T01:12:15;34.67;;;18.65;;
62024;SDS011;47978;49.118;12.146;2023-05-07T01:16:17;24.55;;;13.32;;
62024;SDS011;47978;49.118;12.146;2023-05-07T01:20:18;20.67;;;11.73;;
62024;SDS011;47978;49.118;12.146;2023-05-07T01:24:21;20.75;;;11.73;;
62024;SDS011;47978;49.118;12.146;2023-05-07T01:32:27;21.98;;;10.90;;
62024;SDS011;47978;49.118;12.146;2023-05-07T01:36:33;16.92;;;9.57;;
62024;SDS011;47978;49.118;12.146;2023-05-07T01:40:37;15.43;;;10.00;;
62024;SDS011;47978;49.118;12.146;2023-05-07T01:44:39;12.68;;;9.57;;
62024;SDS011;47978;49.118;12.146;2023-05-07T01:48:40;15.68;;;10.32;;
62024;SDS011;47978;49.118;12.146;2023-05-07T01:52:42;15.65;;;9.60;;
62024;SDS011;47978;49.118;12.146;2023-05-07T01:56:45;13.15;;;9.73;;
62024;SDS011;47978;49.118;12.146;2023-05-07T02:00:47;17.30;;;8.75;;
62024;SDS011;47978;49.118;12.146;2023-05-07T02:04:49;16.15;;;10.25;;
62024;SDS011;47978;49.118;12.146;2023-05-07T02:08:50;17.85;;;9.45;;
62024;SDS011;47978;49.118;12.146;2023-05-07T02:12:53;13.63;;;9.07;;
62024;SDS011;47978;49.118;12.146;2023-05-07T02:16:55;14.85;;;9.90;;
62024;SDS011;47978;49.118;12.146;2023-05-07T02:20:56;16.55;;;10.68;;
62024;SDS011;47978;49.118;12.146;2023-05-07T02:24:58;14.00;;;9.70;;
62024;SDS011;47978;49.118;12.146;2023-05-07T02:29:01;18.45;;;10.32;;
62024;SDS011;47978;49.118;12.146;2023-05-07T02:33:02;14.70;;;9.57;;
62024;SDS011;47978;49.118;12.146;2023-05-07T02:37:04;18.25;;;10.20;;
62024;SDS011;47978;49.118;12.146;2023-05-07T02:41:06;14.40;;;9.98;;
62024;SDS011;47978;49.118;12.146;2023-05-07T02:45:09;14.90;;;9.48;;
62024;SDS011;47978;49.118;12.146;2023-05-07T02:49:11;18.65;;;10.48;;
62024;SDS011;47978;49.118;12.146;2023-05-07T02:53:13;14.07;;;9.30;;
62024;SDS011;47978;49.118;12.146;2023-05-07T02:57:14;18.90;;;11.25;;
62024;SDS011;47978;49.118;12.146;2023-05-07T03:01:17;18.00;;;10.85;;
62024;SDS011;47978;49.118;12.146;2023-05-07T03:05:19;17.67;;;11.30;;
62024;SDS011;47978;49.118;12.146;2023-05-07T03:09:20;16.95;;;11.25;;
62024;SDS011;47978;49.118;12.146;2023-05-07T03:13:22;16.30;;;10.35;;
62024;SDS011;47978;49.118;12.146;2023-05-07T03:17:25;17.98;;;11.77;;
62024;SDS011;47978;49.118;12.146;2023-05-07T03:21:26;17.00;;;10.95;;
62024;SDS011;47978;49.118;12.146;2023-05-07T03:25:28;14.82;;;10.25;;
62024;SDS011;47978;49.118;12.146;2023-05-07T03:29:30;21.25;;;11.90;;
62024;SDS011;47978;49.118;12.146;2023-05-07T03:33:34;24.83;;;12.50;;
62024;SDS011;47978;49.118;12.146;2023-05-07T03:37:35;18.65;;;13.20;;
62024;SDS011;47978;49.118;12.146;2023-05-07T03:41:37;20.40;;;12.38;;
62024;SDS011;47978;49.118;12.146;2023-05-07T03:45:38;24.90;;;18.52;;
62024;SDS011;47978;49.118;12.146;2023-05-07T03:49:41;28.40;;;13.38;;
62024;SDS011;47978;49.118;12.146;2023-05-07T03:53:43;24.75;;;13.25;;
62024;SDS011;47978;49.118;12.146;2023-05-07T03:57:44;21.48;;;10.93;;
62024;SDS011;47978;49.118;12.146;2023-05-07T04:01:46;19.55;;;12.45;;
62024;SDS011;47978;49.118;12.146;2023-05-07T04:05:49;17.15;;;10.50;;
62024;SDS011;47978;49.118;12.146;2023-05-07T04:09:50;18.75;;;11.02;;
62024;SDS011;47978;49.118;12.146;2023-05-07T04:13:52;20.38;;;10.57;;
62024;SDS011;47978;49.118;12.146;2023-05-07T04:17:53;21.17;;;12.45;;
62024;SDS011;47978;49.118;12.146;2023-05-07T04:21:56;19.33;;;11.30;;
62024;SDS011;47978;49.118;12.146;2023-05-07T04:25:58;18.70;;;10.63;;
62024;SDS011;47978;49.118;12.146;2023-05-07T04:29:59;15.15;;;10.93;;
62024;SDS011;47978;49.118;12.146;2023-05-07T04:34:01;17.08;;;11.70;;
62024;SDS011;47978;49.118;12.146;2023-05-07T04:38:04;14.88;;;11.57;;
62024;SDS011;47978;49.118;12.146;2023-05-07T04:42:05;14.80;;;9.68;;
62024;SDS011;47978;49.118;12.146;2023-05-07T04:46:07;15.25;;;10.63;;
62024;SDS011;47978;49.118;12.146;2023-05-07T04:50:09;16.98;;;10.95;;
62024;SDS011;47978;49.118;12.146;2023-05-07T04:54:13;16.67;;;10.32;;
62024;SDS011;47978;49.118;12.146;2023-05-07T04:58:14;19.70;;;10.68;;
62024;SDS011;47978;49.118;12.146;2023-05-07T05:02:16;16.40;;;11.27;;
62024;SDS011;47978;49.118;12.146;2023-05-07T05:06:20;19.85;;;11.05;;
62024;SDS011;47978;49.118;12.146;2023-05-07T05:10:23;15.00;;;10.60;;
62024;SDS011;47978;49.118;12.146;2023-05-07T05:14:25;17.08;;;10.75;;
62024;SDS011;47978;49.118;12.146;2023-05-07T05:18:26;19.10;;;10.85;;
62024;SDS011;47978;49.118;12.146;2023-05-07T05:22:28;16.00;;;9.48;;
62024;SDS011;47978;49.118;12.146;2023-05-07T05:26:31;15.98;;;10.10;;
62024;SDS011;47978;49.118;12.146;2023-05-07T05:30:32;17.50;;;10.30;;
62024;SDS011;47978;49.118;12.146;2023-05-07T05:34:34;13.27;;;9.68;;
62024;SDS011;47978;49.118;12.146;2023-05-07T05:38:36;13.35;;;8.50;;
62024;SDS011;47978;49.118;12.146;2023-05-07T05:42:38;10.93;;;7.68;;
62024;SDS011;47978;49.118;12.146;2023-05-07T05:46:40;8.95;;;7.68;;
62024;SDS011;47978;49.118;12.146;2023-05-07T05:50:42;11.43;;;7.82;;
62024;SDS011;47978;49.118;12.146;2023-05-07T05:54:43;9.38;;;6.80;;
62024;SDS011;47978;49.118;12.146;2023-05-07T05:58:46;15.40;;;7.72;;
62024;SDS011;47978;49.118;12.146;2023-05-07T06:02:48;15.30;;;8.27;;
62024;SDS011;47978;49.118;12.146;2023-05-07T06:06:50;12.95;;;8.70;;
62024;SDS011;47978;49.118;12.146;2023-05-07T06:10:51;11.00;;;9.05;;
62024;SDS011;47978;49.118;12.146;2023-05-07T06:14:54;15.30;;;9.10;;
62024;SDS011;47978;49.118;12.146;2023-05-07T06:22:57;14.48;;;9.35;;
62024;SDS011;47978;49.118;12.146;2023-05-07T06:26:59;12.02;;;8.93;;
62024;SDS011;47978;49.118;12.146;2023-05-07T06:31:11;14.70;;;9.20;;
62024;SDS011;47978;49.118;12.146;2023-05-07T06:35:13;11.30;;;7.97;;
62024;SDS011;47978;49.118;12.146;2023-05-07T06:39:15;14.45;;;9.43;;
62024;SDS011;47978;49.118;12.146;2023-05-07T06:43:17;12.02;;;8.95;;
62024;SDS011;47978;49.118;12.146;2023-05-07T06:47:19;14.13;;;10.07;;
62024;SDS011;47978;49.118;12.146;2023-05-07T06:55:22;13.57;;;9.40;;
62024;SDS011;47978;49.118;12.146;2023-05-07T06:59:24;15.57;;;9.40;;
62024;SDS011;47978;49.118;12.146;2023-05-07T07:03:27;13.82;;;9.32;;
62024;SDS011;47978;49.118;12.146;2023-05-07T07:11:30;15.43;;;10.05;;
62024;SDS011;47978;49.118;12.146;2023-05-07T07:15:31;12.35;;;9.35;;
62024;SDS011;47978;49.118;12.146;2023-05-07T07:19:35;11.65;;;9.63;;
62024;SDS011;47978;49.118;12.146;2023-05-07T07:23:36;16.60;;;10.00;;
62024;SDS011;47978;49.118;12.146;2023-05-07T07:27:38;13.18;;;9.70;;
62024;SDS011;47978;49.118;12.146;2023-05-07T07:31:39;16.35;;;9.85;;
62024;SDS011;47978;49.118;12.146;2023-05-07T07:35:42;17.15;;;9.77;;
62024;SDS011;47978;49.118;12.146;2023-05-07T07:39:44;12.38;;;9.25;;
62024;SDS011;47978;49.118;12.146;2023-05-07T07:43:45;13.55;;;9.18;;
62024;SDS011;47978;49.118;12.146;2023-05-07T07:51:51;13.00;;;8.68;;
62024;SDS011;47978;49.118;12.146;2023-05-07T07:55:53;17.73;;;11.00;;
62024;SDS011;47978;49.118;12.146;2023-05-07T07:59:59;14.80;;;8.93;;
62024;SDS011;47978;49.118;12.146;2023-05-07T08:04:01;13.73;;;9.40;;
62024;SDS011;47978;49.118;12.146;2023-05-07T08:08:04;16.50;;;10.57;;
62024;SDS011;47978;49.118;12.146;2023-05-07T08:12:06;13.55;;;9.43;;
62024;SDS011;47978;49.118;12.146;2023-05-07T08:16:08;18.20;;;10.23;;
62024;SDS011;47978;49.118;12.146;2023-05-07T08:20:10;14.00;;;10.48;;
62024;SDS011;47978;49.118;12.146;2023-05-07T08:24:13;14.07;;;10.48;;
62024;SDS011;47978;49.118;12.146;2023-05-07T08:28:15;14.10;;;10.68;;
62024;SDS011;47978;49.118;12.146;2023-05-07T08:32:16;18.98;;;10.82;;
62024;SDS011;47978;49.118;12.146;2023-05-07T08:36:18;16.65;;;10.73;;
62024;SDS011;47978;49.118;12.146;2023-05-07T08:40:21;16.85;;;10.40;;
62024;SDS011;47978;49.118;12.146;2023-05-07T08:44:26;11.40;;;9.52;;
62024;SDS011;47978;49.118;12.146;2023-05-07T08:48:29;18.88;;;10.85;;
62024;SDS011;47978;49.118;12.146;2023-05-07T08:52:32;18.52;;;11.20;;
62024;SDS011;47978;49.118;12.146;2023-05-07T08:56:35;14.15;;;10.70;;
62024;SDS011;47978;49.118;12.146;2023-05-07T09:00:36;16.83;;;11.00;;
62024;SDS011;47978;49.118;12.146;2023-05-07T09:04:40;15.25;;;10.77;;
62024;SDS011;47978;49.118;12.146;2023-05-07T09:08:44;15.77;;;10.55;;
62024;SDS011;47978;49.118;12.146;2023-05-07T09:12:52;17.70;;;10.18;;
62024;SDS011;47978;49.118;12.146;2023-05-07T09:20:54;15.00;;;9.68;;
62024;SDS011;47978;49.118;12.146;2023-05-07T09:24:56;14.60;;;10.65;;
62024;SDS011;47978;49.118;12.146;2023-05-07T09:28:59;14.75;;;10.30;;
62024;SDS011;47978;49.118;12.146;2023-05-07T09:37:04;17.30;;;9.73;;
62024;SDS011;47978;49.118;12.146;2023-05-07T09:41:07;15.25;;;9.18;;
62024;SDS011;47978;49.118;12.146;2023-05-07T09:45:11;14.52;;;10.88;;
62024;SDS011;47978;49.118;12.146;2023-05-07T09:49:16;15.65;;;11.02;;
62024;SDS011;47978;49.118;12.146;2023-05-07T09:53:22;15.05;;;10.60;;
62024;SDS011;47978;49.118;12.146;2023-05-07T09:57:25;13.20;;;9.43;;
62024;SDS011;47978;49.118;12.146;2023-05-07T10:01:29;18.27;;;9.77;;
62024;SDS011;47978;49.118;12.146;2023-05-07T10:05:32;15.43;;;10.02;;
62024;SDS011;47978;49.118;12.146;2023-05-07T10:09:34;15.43;;;10.32;;
62024;SDS011;47978;49.118;12.146;2023-05-07T10:13:37;14.75;;;9.77;;
62024;SDS011;47978;49.118;12.146;2023-05-07T10:17:40;14.77;;;10.68;;
62024;SDS011;47978;49.118;12.146;2023-05-07T10:21:43;12.25;;;8.95;;
62024;SDS011;47978;49.118;12.146;2023-05-07T10:25:49;13.45;;;9.25;;
62024;SDS011;47978;49.118;12.146;2023-05-07T10:29:56;14.07;;;10.15;;
62024;SDS011;47978;49.118;12.146;2023-05-07T10:34:09;15.88;;;10.68;;
62024;SDS011;47978;49.118;12.146;2023-05-07T10:38:14;13.27;;;9.23;;
62024;SDS011;47978;49.118;12.146;2023-05-07T10:42:16;14.57;;;9.15;;
62024;SDS011;47978;49.118;12.146;2023-05-07T10:46:18;16.17;;;10.23;;
62024;SDS011;47978;49.118;12.146;2023-05-07T10:50:22;13.48;;;9.13;;
62024;SDS011;47978;49.118;12.146;2023-05-07T10:54:24;13.98;;;9.65;;
62024;SDS011;47978;49.118;12.146;2023-05-07T10:58:26;13.50;;;9.45;;
62024;SDS011;47978;49.118;12.146;2023-05-07T11:07:21;15.23;;;9.63;;
62024;SDS011;47978;49.118;12.146;2023-05-07T11:11:46;13.02;;;9.10;;
62024;SDS011;47978;49.118;12.146;2023-05-07T11:15:48;12.02;;;9.48;;
62024;SDS011;47978;49.118;12.146;2023-05-07T11:19:51;25.05;;;8.85;;
62024;SDS011;47978;49.118;12.146;2023-05-07T11:28:06;11.50;;;7.97;;
62024;SDS011;47978;49.118;12.146;2023-05-07T11:32:08;9.20;;;6.90;;
62024;SDS011;47978;49.118;12.146;2023-05-07T11:36:10;9.50;;;6.70;;
62024;SDS011;47978;49.118;12.146;2023-05-07T11:40:13;11.05;;;7.68;;
62024;SDS011;47978;49.118;12.146;2023-05-07T11:44:15;9.18;;;5.15;;
62024;SDS011;47978;49.118;12.146;2023-05-07T11:48:17;8.20;;;5.85;;
62024;SDS011;47978;49.118;12.146;2023-05-07T11:52:19;10.68;;;6.22;;
62024;SDS011;47978;49.118;12.146;2023-05-07T11:56:23;10.15;;;5.95;;
62024;SDS011;47978;49.118;12.146;2023-05-07T12:00:24;10.00;;;6.20;;
62024;SDS011;47978;49.118;12.146;2023-05-07T12:04:26;12.30;;;6.95;;
62024;SDS011;47978;49.118;12.146;2023-05-07T12:08:30;8.27;;;6.22;;
62024;SDS011;47978;49.118;12.146;2023-05-07T12:12:38;10.90;;;5.32;;
62024;SDS011;47978;49.118;12.146;2023-05-07T12:16:40;7.95;;;5.78;;
62024;SDS011;47978;49.118;12.146;2023-05-07T12:20:42;5.55;;;4.38;;
62024;SDS011;47978;49.118;12.146;2023-05-07T12:24:44;8.20;;;5.10;;
62024;SDS011;47978;49.118;12.146;2023-05-07T12:28:48;5.90;;;4.72;;
62024;SDS011;47978;49.118;12.146;2023-05-07T12:36:53;7.25;;;5.85;;
62024;SDS011;47978;49.118;12.146;2023-05-07T12:40:55;9.77;;;6.30;;
62024;SDS011;47978;49.118;12.146;2023-05-07T12:44:58;8.13;;;5.63;;
62024;SDS011;47978;49.118;12.146;2023-05-07T12:49:00;6.35;;;4.60;;
62024;SDS011;47978;49.118;12.146;2023-05-07T12:53:02;8.80;;;4.85;;
62024;SDS011;47978;49.118;12.146;2023-05-07T12:57:05;6.57;;;4.43;;
62024;SDS011;47978;49.118;12.146;2023-05-07T13:01:09;7.55;;;4.63;;
62024;SDS011;47978;49.118;12.146;2023-05-07T13:05:11;8.98;;;4.22;;
62024;SDS011;47978;49.118;12.146;2023-05-07T13:09:13;6.07;;;4.73;;
62024;SDS011;47978;49.118;12.146;2023-05-07T13:13:15;6.45;;;4.32;;
62024;SDS011;47978;49.118;12.146;2023-05-07T13:17:18;5.70;;;3.38;;
62024;SDS011;47978;49.118;12.146;2023-05-07T13:21:20;5.97;;;4.07;;
62024;SDS011;47978;49.118;12.146;2023-05-07T13:25:21;5.45;;;3.92;;
62024;SDS011;47978;49.118;12.146;2023-05-07T13:29:23;6.10;;;4.32;;
62024;SDS011;47978;49.118;12.146;2023-05-07T13:33:26;5.25;;;3.55;;
62024;SDS011;47978;49.118;12.146;2023-05-07T13:41:29;4.72;;;3.72;;
62024;SDS011;47978;49.118;12.146;2023-05-07T13:45:30;8.75;;;4.20;;
62024;SDS011;47978;49.118;12.146;2023-05-07T13:49:33;7.88;;;4.78;;
62024;SDS011;47978;49.118;12.146;2023-05-07T13:57:36;11.20;;;5.38;;
62024;SDS011;47978;49.118;12.146;2023-05-07T14:01:38;9.68;;;5.57;;
62024;SDS011;47978;49.118;12.146;2023-05-07T14:05:41;8.57;;;6.47;;
62024;SDS011;47978;49.118;12.146;2023-05-07T14:13:43;10.60;;;6.57;;
62024;SDS011;47978;49.118;12.146;2023-05-07T14:17:45;12.73;;;6.85;;
62024;SDS011;47978;49.118;12.146;2023-05-07T14:21:48;12.77;;;7.05;;
62024;SDS011;47978;49.118;12.146;2023-05-07T14:25:49;11.45;;;8.10;;
62024;SDS011;47978;49.118;12.146;2023-05-07T14:29:51;13.43;;;8.38;;
62024;SDS011;47978;49.118;12.146;2023-05-07T14:33:52;11.63;;;8.45;;
62024;SDS011;47978;49.118;12.146;2023-05-07T14:37:55;11.13;;;7.85;;
62024;SDS011;47978;49.118;12.146;2023-05-07T14:45:58;10.20;;;7.47;;
62024;SDS011;47978;49.118;12.146;2023-05-07T14:50:00;11.25;;;7.75;;
62024;SDS011;47978;49.118;12.146;2023-05-07T14:54:03;9.43;;;6.90;;
62024;SDS011;47978;49.118;12.146;2023-05-07T14:58:05;10.23;;;7.75;;
62024;SDS011;47978;49.118;12.146;2023-05-07T15:02:07;9.93;;;6.80;;
62024;SDS011;47978;49.118;12.146;2023-05-07T15:06:09;9.63;;;7.00;;
62024;SDS011;47978;49.118;12.146;2023-05-07T15:10:13;10.00;;;7.10;;
62024;SDS011;47978;49.118;12.146;2023-05-07T15:18:16;13.70;;;7.63;;
62024;SDS011;47978;49.118;12.146;2023-05-07T15:22:17;12.82;;;7.50;;
62024;SDS011;47978;49.118;12.146;2023-05-07T15:26:20;11.07;;;7.38;;
62024;SDS011;47978;49.118;12.146;2023-05-07T15:34:23;12.32;;;8.25;;
62024;SDS011;47978;49.118;12.146;2023-05-07T15:38:25;11.63;;;7.55;;
62024;SDS011;47978;49.118;12.146;2023-05-07T15:42:28;11.57;;;8.38;;
62024;SDS011;47978;49.118;12.146;2023-05-07T15:46:29;11.05;;;7.78;;
62024;SDS011;47978;49.118;12.146;2023-05-07T15:50:31;14.43;;;7.90;;
62024;SDS011;47978;49.118;12.146;2023-05-07T15:54:32;11.02;;;8.18;;
62024;SDS011;47978;49.118;12.146;2023-05-07T15:58:35;9.57;;;7.28;;
62024;SDS011;47978;49.118;12.146;2023-05-07T16:02:37;12.30;;;7.25;;
62024;SDS011;47978;49.118;12.146;2023-05-07T16:06:39;11.13;;;7.47;;
62024;SDS011;47978;49.118;12.146;2023-05-07T16:10:40;11.35;;;7.95;;
62024;SDS011;47978;49.118;12.146;2023-05-07T16:14:43;14.05;;;7.90;;
62024;SDS011;47978;49.118;12.146;2023-05-07T16:22:46;12.25;;;7.65;;
62024;SDS011;47978;49.118;12.146;2023-05-07T16:26:48;14.80;;;8.77;;
62024;SDS011;47978;49.118;12.146;2023-05-07T16:30:50;13.48;;;9.38;;
62024;SDS011;47978;49.118;12.146;2023-05-07T16:34:52;12.90;;;9.15;;
62024;SDS011;47978;49.118;12.146;2023-05-07T16:38:54;14.40;;;8.50;;
62024;SDS011;47978;49.118;12.146;2023-05-07T16:42:56;12.40;;;8.65;;
62024;SDS011;47978;49.118;12.146;2023-05-07T16:46:58;12.10;;;8.45;;
62024;SDS011;47978;49.118;12.146;2023-05-07T16:55:01;12.07;;;8.43;;
62024;SDS011;47978;49.118;12.146;2023-05-07T16:59:03;10.85;;;7.65;;
62024;SDS011;47978;49.118;12.146;2023-05-07T17:03:06;14.43;;;9.07;;
62024;SDS011;47978;49.118;12.146;2023-05-07T17:07:08;14.00;;;8.32;;
62024;SDS011;47978;49.118;12.146;2023-05-07T17:11:09;12.13;;;8.02;;
62024;SDS011;47978;49.118;12.146;2023-05-07T17:15:12;19.07;;;9.07;;
62024;SDS011;47978;49.118;12.146;2023-05-07T17:19:15;14.40;;;9.68;;
62024;SDS011;47978;49.118;12.146;2023-05-07T17:27:18;15.48;;;9.57;;
62024;SDS011;47978;49.118;12.146;2023-05-07T17:31:20;13.45;;;8.98;;
62024;SDS011;47978;49.118;12.146;2023-05-07T17:35:22;16.90;;;9.05;;
62024;SDS011;47978;49.118;12.146;2023-05-07T17:39:24;14.85;;;8.70;;
62024;SDS011;47978;49.118;12.146;2023-05-07T17:43:26;13.68;;;9.98;;
62024;SDS011;47978;49.118;12.146;2023-05-07T17:47:28;12.55;;;9.23;;
62024;SDS011;47978;49.118;12.146;2023-05-07T17:51:31;16.17;;;9.50;;
62024;SDS011;47978;49.118;12.146;2023-05-07T17:55:52;17.52;;;9.27;;
62024;SDS011;47978;49.118;12.146;2023-05-07T17:59:54;18.85;;;10.23;;
62024;SDS011;47978;49.118;12.146;2023-05-07T18:03:55;14.38;;;9.20;;
62024;SDS011;47978;49.118;12.146;2023-05-07T18:07:58;14.60;;;9.95;;
62024;SDS011;47978;49.118;12.146;2023-05-07T18:12:00;14.30;;;9.68;;
62024;SDS011;47978;49.118;12.146;2023-05-07T18:16:02;14.70;;;8.85;;
62024;SDS011;47978;49.118;12.146;2023-05-07T18:20:04;16.85;;;10.00;;
62024;SDS011;47978;49.118;12.146;2023-05-07T18:24:08;14.88;;;10.20;;
62024;SDS011;47978;49.118;12.146;2023-05-07T18:32:11;15.65;;;9.98;;
62024;SDS011;47978;49.118;12.146;2023-05-07T18:36:12;15.13;;;10.27;;
62024;SDS011;47978;49.118;12.146;2023-05-07T18:40:15;16.92;;;9.60;;
62024;SDS011;47978;49.118;12.146;2023-05-07T18:48:18;17.02;;;10.43;;
62024;SDS011;47978;49.118;12.146;2023-05-07T18:52:20;14.93;;;10.23;;
62024;SDS011;47978;49.118;12.146;2023-05-07T18:56:23;15.63;;;9.70;;
62024;SDS011;47978;49.118;12.146;2023-05-07T19:00:24;18.35;;;11.02;;
62024;SDS011;47978;49.118;12.146;2023-05-07T19:04:26;19.40;;;11.82;;
62024;SDS011;47978;49.118;12.146;2023-05-07T19:08:28;17.02;;;10.65;;
62024;SDS011;47978;49.118;12.146;2023-05-07T19:12:30;19.05;;;10.65;;
62024;SDS011;47978;49.118;12.146;2023-05-07T19:16:32;16.50;;;10.38;;
62024;SDS011;47978;49.118;12.146;2023-05-07T19:20:34;18.17;;;10.27;;
62024;SDS011;47978;49.118;12.146;2023-05-07T19:24:35;17.48;;;9.10;;
62024;SDS011;47978;49.118;12.146;2023-05-07T19:28:38;13.30;;;8.43;;
62024;SDS011;47978;49.118;12.146;2023-05-07T19:32:48;14.40;;;9.60;;
62024;SDS011;47978;49.118;12.146;2023-05-07T19:36:50;15.25;;;9.55;;
62024;SDS011;47978;49.118;12.146;2023-05-07T19:40:51;13.48;;;9.20;;
62024;SDS011;47978;49.118;12.146;2023-05-07T19:44:54;12.80;;;9.15;;
62024;SDS011;47978;49.118;12.146;2023-05-07T19:48:56;13.65;;;7.82;;
62024;SDS011;47978;49.118;12.146;2023-05-07T19:52:57;13.30;;;8.02;;
62024;SDS011;47978;49.118;12.146;2023-05-07T19:56:59;12.68;;;7.97;;
62024;SDS011;47978;49.118;12.146;2023-05-07T20:01:02;13.50;;;7.93;;
62024;SDS011;47978;49.118;12.146;2023-05-07T20:05:05;12.35;;;7.90;;
62024;SDS011;47978;49.118;12.146;2023-05-07T20:09:07;13.73;;;8.03;;
62024;SDS011;47978;49.118;12.146;2023-05-07T20:13:09;13.23;;;8.70;;
62024;SDS011;47978;49.118;12.146;2023-05-07T20:17:12;13.50;;;8.77;;
62024;SDS011;47978;49.118;12.146;2023-05-07T20:21:14;12.60;;;7.97;;
62024;SDS011;47978;49.118;12.146;2023-05-07T20:25:15;14.25;;;8.30;;
62024;SDS011;47978;49.118;12.146;2023-05-07T20:29:17;12.75;;;8.68;;
62024;SDS011;47978;49.118;12.146;2023-05-07T20:33:20;15.50;;;8.02;;
62024;SDS011;47978;49.118;12.146;2023-05-07T20:37:21;12.60;;;8.02;;
62024;SDS011;47978;49.118;12.146;2023-05-07T20:41:23;11.80;;;7.32;;
62024;SDS011;47978;49.118;12.146;2023-05-07T20:45:24;11.60;;;8.23;;
62024;SDS011;47978;49.118;12.146;2023-05-07T20:49:27;11.73;;;8.20;;
62024;SDS011;47978;49.118;12.146;2023-05-07T20:53:29;10.68;;;7.97;;
62024;SDS011;47978;49.118;12.146;2023-05-07T20:57:31;11.93;;;8.48;;
62024;SDS011;47978;49.118;12.146;2023-05-07T21:01:33;11.85;;;8.38;;
62024;SDS011;47978;49.118;12.146;2023-05-07T21:05:36;11.85;;;7.70;;
62024;SDS011;47978;49.118;12.146;2023-05-07T21:09:38;12.82;;;8.38;;
62024;SDS011;47978;49.118;12.146;2023-05-07T21:13:39;10.27;;;8.05;;
62024;SDS011;47978;49.118;12.146;2023-05-07T21:17:41;11.05;;;8.02;;
62024;SDS011;47978;49.118;12.146;2023-05-07T21:21:44;11.13;;;8.15;;
62024;SDS011;47978;49.118;12.146;2023-05-07T21:25:45;11.10;;;6.97;;
62024;SDS011;47978;49.118;12.146;2023-05-07T21:29:47;13.20;;;8.50;;
62024;SDS011;47978;49.118;12.146;2023-05-07T21:33:49;9.80;;;7.40;;
62024;SDS011;47978;49.118;12.146;2023-05-07T21:37:51;11.95;;;8.55;;
62024;SDS011;47978;49.118;12.146;2023-05-07T21:41:53;12.63;;;8.95;;
62024;SDS011;47978;49.118;12.146;2023-05-07T21:45:55;12.18;;;7.85;;
62024;SDS011;47978;49.118;12.146;2023-05-07T21:49:56;12.80;;;8.52;;
62024;SDS011;47978;49.118;12.146;2023-05-07T21:53:59;12.15;;;8.60;;
62024;SDS011;47978;49.118;12.146;2023-05-07T21:58:01;13.25;;;8.35;;
62024;SDS011;47978;49.118;12.146;2023-05-07T22:02:06;13.27;;;8.90;;
62024;SDS011;47978;49.118;12.146;2023-05-07T22:06:08;14.20;;;8.93;;
62024;SDS011;47978;49.118;12.146;2023-05-07T22:10:10;14.18;;;9.88;;
62024;SDS011;47978;49.118;12.146;2023-05-07T22:14:13;13.75;;;9.52;;
62024;SDS011;47978;49.118;12.146;2023-05-07T22:18:14;16.33;;;10.35;;
62024;SDS011;47978;49.118;12.146;2023-05-07T22:22:16;15.25;;;10.40;;
62024;SDS011;47978;49.118;12.146;2023-05-07T22:26:18;13.95;;;9.05;;
62024;SDS011;47978;49.118;12.146;2023-05-07T22:30:20;15.02;;;9.68;;
62024;SDS011;47978;49.118;12.146;2023-05-07T22:34:22;14.73;;;10.07;;
62024;SDS011;47978;49.118;12.146;2023-05-07T22:38:23;14.27;;;9.40;;
62024;SDS011;47978;49.118;12.146;2023-05-07T22:42:26;15.63;;;9.82;;
62024;SDS011;47978;49.118;12.146;2023-05-07T22:46:28;17.17;;;11.20;;
62024;SDS011;47978;49.118;12.146;2023-05-07T22:50:29;14.68;;;10.02;;
62024;SDS011;47978;49.118;12.146;2023-05-07T22:54:31;13.93;;;10.75;;
62024;SDS011;47978;49.118;12.146;2023-05-07T22:58:34;14.32;;;7.47;;
62024;SDS011;47978;49.118;12.146;2023-05-07T23:02:35;15.45;;;9.55;;
62024;SDS011;47978;49.118;12.146;2023-05-07T23:06:37;18.85;;;11.75;;
62024;SDS011;47978;49.118;12.146;2023-05-07T23:10:39;17.25;;;12.05;;
62024;SDS011;47978;49.118;12.146;2023-05-07T23:14:42;17.83;;;10.82;;
62024;SDS011;47978;49.118;12.146;2023-05-07T23:18:43;16.70;;;11.95;;
62024;SDS011;47978;49.118;12.146;2023-05-07T23:22:45;18.38;;;12.60;;
62024;SDS011;47978;49.118;12.146;2023-05-07T23:26:46;16.77;;;11.02;;
62024;SDS011;47978;49.118;12.146;2023-05-07T23:30:49;21.52;;;11.18;;
62024;SDS011;47978;49.118;12.146;2023-05-07T23:34:51;16.75;;;10.60;;
62024;SDS011;47978;49.118;12.146;2023-05-07T23:38:53;16.35;;;10.75;;
62024;SDS011;47978;49.118;12.146;2023-05-07T23:42:54;21.15;;;12.40;;
62024;SDS011;47978;49.118;12.146;2023-05-07T23:46:57;15.70;;;11.30;;
62024;SDS011;47978;49.118;12.146;2023-05-07T23:50:59;16.95;;;10.65;;
62024;SDS011;47978;49.118;12.146;2023-05-07T23:55:00;16.02;;;10.93;;
62024;SDS011;47978;49.118;12.146;2023-05-07T23:59:02;17.45;;;11.25;;
